Time;durP1;ratioP1;P1;durP2;ratioP2;P2;SDS_P1;SDS_P2;PMS_P1;PMS_P2;Temp;Humidity;BMP_temperature;BMP_pressure;BME280_temperature;BME280_humidity;BME280_pressure;Samples;Min_cycle;Max_cycle;Signal;HPM_P1;HPM_P2
2022/07/12 00:01:04;;;;;;;2.75;1.05;;;;;;;;;;5092542;28;20545;-68
2022/07/12 00:03:29;;;;;;;3.65;1.00;;;;;;;;;;5092627;28;20074;-67
2022/07/12 00:05:56;;;;;;;4.43;1.00;;;;;;;;;;5092707;28;20028;-68
2022/07/12 00:08:22;;;;;;;3.35;1.40;;;;;;;;;;5092293;28;20503;-68
2022/07/12 00:10:48;;;;;;;1.48;1.00;;;;;;;;;;5092532;28;20043;-68
2022/07/12 00:13:13;;;;;;;2.10;1.15;;;;;;;;;;5092598;28;20074;-67
2022/07/12 00:15:39;;;;;;;3.15;1.40;;;;;;;;;;5092535;28;20119;-66
2022/07/12 00:18:04;;;;;;;2.22;1.10;;;;;;;;;;5092441;28;20073;-69
2022/07/12 00:20:30;;;;;;;2.25;0.88;;;;;;;;;;5074255;28;20424;-64
2022/07/12 00:22:55;;;;;;;3.13;1.20;;;;;;;;;;5092386;28;20029;-65
2022/07/12 00:25:21;;;;;;;3.03;1.10;;;;;;;;;;5092552;28;20023;-68
2022/07/12 00:27:47;;;;;;;3.53;0.90;;;;;;;;;;5092473;28;20066;-68
2022/07/12 00:30:12;;;;;;;2.42;1.30;;;;;;;;;;5074105;28;20028;-66
2022/07/12 00:32:38;;;;;;;4.53;1.10;;;;;;;;;;5092424;28;20061;-65
2022/07/12 00:35:05;;;;;;;2.60;1.10;;;;;;;;;;5092384;28;20465;-63
2022/07/12 00:37:32;;;;;;;2.88;1.10;;;;;;;;;;5092156;28;20477;-64
2022/07/12 00:39:58;;;;;;;4.05;1.15;;;;;;;;;;5092459;28;20373;-68
2022/07/12 00:42:24;;;;;;;5.03;1.08;;;;;;;;;;5093336;28;20020;-65
2022/07/12 00:44:50;;;;;;;4.78;0.95;;;;;;;;;;5095712;28;20485;-65
2022/07/12 00:47:36;;;;;;;3.42;1.00;;;;;;;;;;5095987;28;20030;-67
2022/07/12 00:50:04;;;;;;;4.63;1.65;;;;;;;;;;5095764;28;20028;-67
2022/07/12 00:52:29;;;;;;;6.88;1.10;;;;;;;;;;5095698;28;20040;-67
2022/07/12 00:54:55;;;;;;;1.52;0.90;;;;;;;;;;5095801;28;20559;-65
2022/07/12 00:57:21;;;;;;;2.95;1.00;;;;;;;;;;5095689;28;20028;-64
2022/07/12 00:59:46;;;;;;;1.48;0.90;;;;;;;;;;5095431;28;20073;-67
2022/07/12 01:02:13;;;;;;;3.20;1.05;;;;;;;;;;5095548;28;20698;-64
2022/07/12 01:04:39;;;;;;;2.45;0.88;;;;;;;;;;5095566;28;20032;-64
2022/07/12 01:07:05;;;;;;;3.28;0.95;;;;;;;;;;5095404;28;20495;-63
2022/07/12 01:09:31;;;;;;;2.03;0.93;;;;;;;;;;5095458;28;20028;-64
2022/07/12 01:11:57;;;;;;;1.30;0.70;;;;;;;;;;5077305;28;20024;-65
2022/07/12 01:14:23;;;;;;;7.22;0.90;;;;;;;;;;5095245;28;20389;-68
2022/07/12 01:16:49;;;;;;;1.88;0.77;;;;;;;;;;5095398;28;20028;-63
2022/07/12 01:19:20;;;;;;;3.00;0.80;;;;;;;;;;5095317;28;20020;-65
2022/07/12 01:21:50;;;;;;;3.53;1.10;;;;;;;;;;5095131;28;20370;-67
2022/07/12 01:24:18;;;;;;;1.45;0.80;;;;;;;;;;5095201;28;20376;-64
2022/07/12 01:26:43;;;;;;;2.80;1.00;;;;;;;;;;5095029;28;20024;-66
2022/07/12 01:29:10;;;;;;;2.42;0.82;;;;;;;;;;5095154;28;20080;-66
2022/07/12 01:31:36;;;;;;;1.80;0.70;;;;;;;;;;5095168;28;20028;-64
2022/07/12 01:34:03;;;;;;;4.07;1.05;;;;;;;;;;5094935;28;20020;-66
2022/07/12 01:36:29;;;;;;;2.28;0.88;;;;;;;;;;5094936;28;20028;-64
2022/07/12 01:38:55;;;;;;;2.80;0.95;;;;;;;;;;5094935;28;20016;-67
2022/07/12 01:41:22;;;;;;;1.67;0.95;;;;;;;;;;5094832;28;20038;-66
2022/07/12 01:43:48;;;;;;;2.15;1.02;;;;;;;;;;5094494;28;20226;-64
2022/07/12 01:46:13;;;;;;;2.10;0.65;;;;;;;;;;5094892;28;20537;-64
2022/07/12 01:48:39;;;;;;;1.98;0.90;;;;;;;;;;5094427;28;20059;-67
2022/07/12 01:51:05;;;;;;;3.42;1.10;;;;;;;;;;5094786;28;20063;-67
2022/07/12 01:53:31;;;;;;;3.17;0.80;;;;;;;;;;5094391;28;20036;-67
2022/07/12 01:55:56;;;;;;;4.13;1.25;;;;;;;;;;5094677;28;20031;-68
2022/07/12 01:58:23;;;;;;;3.50;1.05;;;;;;;;;;5094521;28;20024;-68
2022/07/12 02:00:52;;;;;;;1.80;0.80;;;;;;;;;;5094433;28;20038;-67
2022/07/12 02:03:20;;;;;;;1.58;0.90;;;;;;;;;;5094319;28;20070;-67
2022/07/12 02:05:46;;;;;;;2.45;0.80;;;;;;;;;;5094497;28;20035;-66
2022/07/12 02:08:12;;;;;;;2.25;0.70;;;;;;;;;;5094242;28;20119;-66
2022/07/12 02:10:39;;;;;;;3.45;0.90;;;;;;;;;;5094284;28;20027;-68
2022/07/12 02:13:05;;;;;;;2.10;0.93;;;;;;;;;;5094454;28;20020;-67
2022/07/12 02:15:31;;;;;;;1.42;0.68;;;;;;;;;;5076020;28;20072;-67
2022/07/12 02:17:57;;;;;;;1.73;0.80;;;;;;;;;;5093869;28;20375;-67
2022/07/12 02:20:22;;;;;;;4.32;0.80;;;;;;;;;;5094089;28;20032;-67
2022/07/12 02:22:48;;;;;;;2.53;0.70;;;;;;;;;;5094081;28;20026;-68
2022/07/12 02:25:14;;;;;;;2.33;0.93;;;;;;;;;;5094023;28;20511;-66
2022/07/12 02:27:42;;;;;;;1.40;0.82;;;;;;;;;;5094210;28;20373;-68
2022/07/12 02:30:10;;;;;;;3.53;0.90;;;;;;;;;;5093990;28;20107;-66
2022/07/12 02:32:36;;;;;;;2.90;0.90;;;;;;;;;;5093854;28;20016;-66
2022/07/12 02:35:03;;;;;;;1.35;0.70;;;;;;;;;;5093986;28;20031;-67
2022/07/12 02:37:29;;;;;;;4.13;0.80;;;;;;;;;;5093998;28;20103;-66
2022/07/12 02:40:53;;;;;;;3.08;1.00;;;;;;;;;;5093645;28;20056;-67
2022/07/12 02:42:39;;;;;;;2.75;0.80;;;;;;;;;;5093521;28;20036;-66
2022/07/12 02:45:06;;;;;;;2.28;0.93;;;;;;;;;;5093443;28;20405;-68
2022/07/12 02:47:31;;;;;;;3.22;0.88;;;;;;;;;;5093447;28;20016;-65
2022/07/12 02:49:58;;;;;;;3.45;1.00;;;;;;;;;;5093445;28;20016;-64
2022/07/12 02:52:24;;;;;;;1.45;0.80;;;;;;;;;;5093664;28;20103;-67
2022/07/12 02:54:50;;;;;;;4.63;1.10;;;;;;;;;;5075407;28;20103;-64
2022/07/12 02:57:15;;;;;;;5.50;1.20;;;;;;;;;;5093581;28;20020;-67
2022/07/12 02:59:41;;;;;;;6.43;1.70;;;;;;;;;;5093292;28;20028;-66
2022/07/12 03:02:06;;;;;;;1.60;0.90;;;;;;;;;;5093080;28;20028;-67
2022/07/12 03:04:32;;;;;;;12.15;5.95;;;;;;;;;;5093160;28;20333;-67
2022/07/12 03:06:57;;;;;;;7.00;1.90;;;;;;;;;;5093130;28;20039;-66
2022/07/12 03:09:23;;;;;;;4.45;1.10;;;;;;;;;;5093339;28;20032;-67
2022/07/12 03:11:48;;;;;;;3.53;0.93;;;;;;;;;;5093381;28;20035;-67
2022/07/12 03:14:14;;;;;;;1.60;1.00;;;;;;;;;;5093263;28;20028;-65
2022/07/12 03:16:40;;;;;;;1.52;0.80;;;;;;;;;;5093091;28;20024;-67
2022/07/12 03:19:05;;;;;;;5.28;1.10;;;;;;;;;;5093084;28;20066;-64
2022/07/12 03:21:31;;;;;;;2.53;0.90;;;;;;;;;;5092852;28;20059;-65
2022/07/12 03:23:56;;;;;;;5.55;1.48;;;;;;;;;;5093038;28;20031;-68
2022/07/12 03:26:22;;;;;;;1.55;0.90;;;;;;;;;;5093153;28;20024;-65
2022/07/12 03:28:47;;;;;;;4.43;1.00;;;;;;;;;;5093129;28;20020;-64
2022/07/12 03:31:13;;;;;;;4.70;1.30;;;;;;;;;;5092781;28;20069;-64
2022/07/12 03:33:39;;;;;;;3.53;1.00;;;;;;;;;;5093037;28;20024;-64
2022/07/12 03:36:06;;;;;;;4.30;1.10;;;;;;;;;;5092870;28;20028;-64
2022/07/12 03:38:32;;;;;;;13.63;1.90;;;;;;;;;;5092585;28;20028;-65
2022/07/12 03:40:57;;;;;;;8.52;1.38;;;;;;;;;;5092769;28;20043;-68
2022/07/12 03:43:23;;;;;;;8.88;1.70;;;;;;;;;;5092324;28;20036;-67
2022/07/12 03:45:49;;;;;;;7.32;2.33;;;;;;;;;;5092770;28;20468;-66
2022/07/12 03:48:14;;;;;;;2.63;1.02;;;;;;;;;;5092776;28;20515;-64
2022/07/12 03:50:40;;;;;;;6.57;1.63;;;;;;;;;;5092991;28;20024;-67
2022/07/12 03:53:05;;;;;;;3.97;1.38;;;;;;;;;;5092864;28;20038;-67
2022/07/12 03:55:31;;;;;;;3.65;1.20;;;;;;;;;;5092628;28;20077;-67
2022/07/12 03:57:56;;;;;;;17.58;2.67;;;;;;;;;;5092681;28;20095;-66
2022/07/12 04:00:22;;;;;;;3.95;1.50;;;;;;;;;;5092445;28;20024;-64
2022/07/12 04:02:48;;;;;;;8.10;1.23;;;;;;;;;;5092697;28;20023;-65
2022/07/12 04:05:13;;;;;;;3.00;0.95;;;;;;;;;;5092809;28;20111;-67
2022/07/12 04:07:40;;;;;;;3.38;1.08;;;;;;;;;;5092491;28;20078;-67
2022/07/12 04:10:06;;;;;;;2.97;1.02;;;;;;;;;;5092637;28;20028;-68
2022/07/12 04:12:32;;;;;;;5.45;1.40;;;;;;;;;;5092807;28;20094;-68
2022/07/12 04:14:57;;;;;;;2.40;0.98;;;;;;;;;;5092351;28;20032;-68
2022/07/12 04:17:23;;;;;;;2.55;0.90;;;;;;;;;;5095083;28;20081;-67
2022/07/12 04:19:49;;;;;;;4.53;1.10;;;;;;;;;;5096416;28;20052;-68
2022/07/12 04:22:14;;;;;;;4.88;0.90;;;;;;;;;;5096254;28;20036;-68
2022/07/12 04:24:40;;;;;;;2.03;0.90;;;;;;;;;;5096519;28;20107;-68
2022/07/12 04:27:05;;;;;;;3.22;1.00;;;;;;;;;;5096316;28;20333;-68
2022/07/12 04:29:31;;;;;;;3.20;1.08;;;;;;;;;;5096012;28;20031;-68
2022/07/12 04:31:56;;;;;;;1.95;0.90;;;;;;;;;;5096217;28;20028;-68
2022/07/12 04:34:22;;;;;;;4.32;1.13;;;;;;;;;;5096128;28;20035;-68
2022/07/12 04:36:48;;;;;;;6.03;1.40;;;;;;;;;;5095997;28;20068;-68
2022/07/12 04:39:14;;;;;;;1.40;0.85;;;;;;;;;;5095881;28;20066;-67
2022/07/12 04:41:40;;;;;;;5.05;1.25;;;;;;;;;;5095869;28;20058;-67
2022/07/12 04:44:06;;;;;;;2.40;0.90;;;;;;;;;;5095265;28;20152;-65
2022/07/12 04:46:32;;;;;;;3.08;0.80;;;;;;;;;;5095916;28;20024;-68
2022/07/12 04:48:58;;;;;;;5.75;1.02;;;;;;;;;;5095873;28;20532;-68
2022/07/12 04:51:23;;;;;;;4.30;1.30;;;;;;;;;;5095736;28;20376;-67
2022/07/12 04:53:49;;;;;;;2.47;0.80;;;;;;;;;;5095956;28;20028;-65
2022/07/12 04:56:14;;;;;;;3.75;1.00;;;;;;;;;;5095752;28;20359;-65
2022/07/12 04:58:40;;;;;;;4.20;1.17;;;;;;;;;;5095256;28;20384;-68
2022/07/12 05:01:07;;;;;;;2.92;0.98;;;;;;;;;;5095507;28;20036;-66
2022/07/12 05:03:33;;;;;;;3.35;0.98;;;;;;;;;;5095502;28;20535;-67
2022/07/12 05:05:58;;;;;;;3.78;1.00;;;;;;;;;;5095620;28;20028;-68
2022/07/12 05:08:24;;;;;;;4.22;1.10;;;;;;;;;;5095526;28;20028;-67
2022/07/12 05:10:49;;;;;;;5.50;1.20;;;;;;;;;;5095330;28;20017;-67
2022/07/12 05:13:15;;;;;;;5.18;1.35;;;;;;;;;;5095232;28;20030;-68
2022/07/12 05:15:41;;;;;;;4.80;1.48;;;;;;;;;;5095286;28;20032;-66
2022/07/12 05:18:06;;;;;;;8.07;1.30;;;;;;;;;;5095296;28;20024;-67
2022/07/12 05:20:33;;;;;;;3.30;1.10;;;;;;;;;;5095284;28;20020;-67
2022/07/12 05:22:59;;;;;;;6.75;1.20;;;;;;;;;;5077072;28;20035;-65
2022/07/12 05:25:24;;;;;;;2.00;0.90;;;;;;;;;;5095168;28;20423;-64
2022/07/12 05:27:50;;;;;;;3.55;1.05;;;;;;;;;;5093967;28;20613;-65
2022/07/12 05:30:16;;;;;;;3.03;1.10;;;;;;;;;;5095102;28;20121;-67
2022/07/12 05:32:42;;;;;;;5.18;1.42;;;;;;;;;;5095119;28;20451;-65
2022/07/12 05:35:08;;;;;;;4.25;0.98;;;;;;;;;;5095047;28;20028;-67
2022/07/12 05:37:33;;;;;;;2.53;1.20;;;;;;;;;;5094872;28;20194;-65
2022/07/12 05:39:59;;;;;;;6.15;1.15;;;;;;;;;;5094611;28;20027;-64
2022/07/12 05:42:24;;;;;;;3.35;1.02;;;;;;;;;;5094737;28;20351;-66
2022/07/12 05:44:50;;;;;;;3.50;1.00;;;;;;;;;;5094423;28;20051;-64
2022/07/12 05:47:15;;;;;;;10.43;1.10;;;;;;;;;;5094798;28;20024;-67
2022/07/12 05:49:41;;;;;;;2.88;1.10;;;;;;;;;;5094655;28;20024;-68
2022/07/12 05:54:51;;;;;;;5.40;1.00;;;;;;;;;;5094388;28;20038;-67
2022/07/12 05:57:16;;;;;;;2.60;1.10;;;;;;;;;;5094540;28;20028;-64
2022/07/12 05:59:42;;;;;;;2.47;0.90;;;;;;;;;;5094507;28;20421;-62
2022/07/12 06:02:08;;;;;;;8.63;1.23;;;;;;;;;;5094220;28;20028;-62
2022/07/12 06:04:34;;;;;;;2.08;0.95;;;;;;;;;;5094367;28;20059;-67
2022/07/12 06:06:59;;;;;;;4.22;1.08;;;;;;;;;;5094401;28;20024;-66
2022/07/12 06:09:25;;;;;;;2.58;0.98;;;;;;;;;;5075782;28;20035;-65
2022/07/12 06:11:50;;;;;;;1.60;0.82;;;;;;;;;;5094437;28;20116;-65
2022/07/12 06:14:16;;;;;;;3.08;1.00;;;;;;;;;;5094259;28;20035;-65
2022/07/12 06:16:41;;;;;;;7.45;1.10;;;;;;;;;;5094065;28;20342;-64
2022/07/12 06:19:07;;;;;;;5.03;1.02;;;;;;;;;;5093970;28;20388;-61
2022/07/12 06:21:33;;;;;;;3.28;0.98;;;;;;;;;;5093916;28;20391;-65
2022/07/12 06:23:59;;;;;;;3.55;0.90;;;;;;;;;;5093708;28;20505;-64
2022/07/12 06:26:24;;;;;;;2.85;0.88;;;;;;;;;;5094006;28;20023;-65
2022/07/12 06:28:50;;;;;;;2.92;0.93;;;;;;;;;;5093800;28;20464;-63
2022/07/12 06:31:16;;;;;;;5.75;1.30;;;;;;;;;;5093800;28;20032;-64
2022/07/12 06:33:41;;;;;;;3.78;0.80;;;;;;;;;;5093987;28;20031;-66
2022/07/12 06:36:07;;;;;;;3.15;1.00;;;;;;;;;;5093778;28;20362;-66
2022/07/12 06:38:32;;;;;;;3.42;0.95;;;;;;;;;;5075284;28;20039;-63
2022/07/12 06:40:58;;;;;;;2.70;0.73;;;;;;;;;;5092687;28;20488;-66
2022/07/12 06:43:23;;;;;;;5.38;1.00;;;;;;;;;;5093302;28;20123;-67
2022/07/12 06:45:49;;;;;;;2.20;0.88;;;;;;;;;;5093543;28;20032;-69
2022/07/12 06:48:14;;;;;;;4.32;0.80;;;;;;;;;;5093235;28;20528;-66
2022/07/12 06:50:40;;;;;;;5.78;0.85;;;;;;;;;;5093510;28;20425;-64
2022/07/12 06:53:06;;;;;;;4.72;1.17;;;;;;;;;;5093272;28;20484;-66
2022/07/12 06:55:31;;;;;;;2.67;1.17;;;;;;;;;;5093283;28;20538;-66
2022/07/12 06:57:57;;;;;;;3.33;0.90;;;;;;;;;;5093438;28;20031;-65
2022/07/12 07:00:23;;;;;;;2.13;0.90;;;;;;;;;;5093365;28;20107;-63
2022/07/12 07:02:48;;;;;;;2.90;0.98;;;;;;;;;;5093275;28;20035;-67
2022/07/12 07:05:15;;;;;;;4.10;0.80;;;;;;;;;;5093426;28;20125;-65
2022/07/12 07:07:41;;;;;;;4.93;1.10;;;;;;;;;;5092710;28;20035;-66
2022/07/12 07:10:07;;;;;;;4.88;0.90;;;;;;;;;;5093080;28;20028;-66
2022/07/12 07:12:33;;;;;;;1.73;0.90;;;;;;;;;;5093295;28;20020;-64
2022/07/12 07:14:58;;;;;;;1.58;0.70;;;;;;;;;;5093183;28;20445;-63
2022/07/12 07:17:24;;;;;;;5.47;0.80;;;;;;;;;;5093153;28;20031;-64
2022/07/12 07:19:49;;;;;;;4.32;1.00;;;;;;;;;;5093091;28;20047;-66
2022/07/12 07:22:15;;;;;;;4.28;0.80;;;;;;;;;;5092869;28;20039;-65
2022/07/12 07:24:41;;;;;;;3.67;0.80;;;;;;;;;;5093093;28;20110;-66
2022/07/12 07:27:07;;;;;;;2.85;0.80;;;;;;;;;;5093038;28;20028;-67
2022/07/12 07:32:17;;;;;;;2.13;1.00;;;;;;;;;;5093106;28;20129;-67
2022/07/12 07:34:43;;;;;;;2.67;0.95;;;;;;;;;;5093005;28;20031;-66
2022/07/12 07:37:09;;;;;;;3.67;1.13;;;;;;;;;;5092745;28;20039;-66
2022/07/12 07:39:35;;;;;;;7.65;1.10;;;;;;;;;;5092451;28;20016;-66
2022/07/12 07:42:01;;;;;;;1.10;0.80;;;;;;;;;;5092566;28;20524;-67
2022/07/12 07:44:26;;;;;;;2.28;1.00;;;;;;;;;;5089747;28;20481;-64
2022/07/12 07:46:52;;;;;;;2.28;0.80;;;;;;;;;;5089753;28;20093;-66
2022/07/12 07:49:17;;;;;;;2.53;0.90;;;;;;;;;;5082934;28;20036;-67
2022/07/12 07:51:43;;;;;;;3.80;0.95;;;;;;;;;;5082285;28;20029;-65
2022/07/12 07:54:08;;;;;;;4.82;0.80;;;;;;;;;;5086648;28;20016;-65
2022/07/12 07:56:34;;;;;;;3.97;1.00;;;;;;;;;;5086452;28;20211;-63
2022/07/12 07:58:59;;;;;;;2.90;0.90;;;;;;;;;;5085161;28;20485;-66
2022/07/12 08:01:42;;;;;;;4.22;0.90;;;;;;;;;;5084996;28;20108;-63
2022/07/12 08:04:18;;;;;;;1.63;0.90;;;;;;;;;;5085478;28;20020;-62
2022/07/12 08:06:44;;;;;;;2.30;0.93;;;;;;;;;;5084731;28;20408;-66
2022/07/12 08:09:10;;;;;;;1.58;0.70;;;;;;;;;;5087414;28;20035;-65
2022/07/12 08:11:36;;;;;;;2.05;0.90;;;;;;;;;;5085555;28;20024;-66
2022/07/12 08:14:03;;;;;;;4.43;0.90;;;;;;;;;;5087107;28;20016;-64
2022/07/12 08:16:28;;;;;;;3.80;1.05;;;;;;;;;;5085331;28;20028;-63
2022/07/12 08:18:54;;;;;;;3.10;1.20;;;;;;;;;;5066877;28;20024;-64
2022/07/12 08:21:20;;;;;;;4.45;0.80;;;;;;;;;;5086456;28;20029;-64
2022/07/12 08:23:45;;;;;;;2.00;0.80;;;;;;;;;;5084567;28;20376;-62
2022/07/12 08:26:11;;;;;;;2.47;0.85;;;;;;;;;;5085835;28;20012;-64
2022/07/12 08:28:37;;;;;;;2.70;0.80;;;;;;;;;;5086263;28;20104;-62
2022/07/12 08:31:02;;;;;;;2.75;0.90;;;;;;;;;;5084422;28;20082;-62
2022/07/12 08:33:28;;;;;;;2.15;0.80;;;;;;;;;;5086093;28;20024;-61
2022/07/12 08:35:54;;;;;;;1.52;0.80;;;;;;;;;;5085468;28;20029;-61
2022/07/12 08:38:20;;;;;;;2.65;0.90;;;;;;;;;;5084438;28;20039;-62
2022/07/12 08:40:45;;;;;;;2.65;0.82;;;;;;;;;;5084325;28;20024;-62
2022/07/12 08:43:11;;;;;;;2.83;0.70;;;;;;;;;;5085467;28;20477;-63
2022/07/12 08:45:37;;;;;;;1.58;0.90;;;;;;;;;;5085815;28;20111;-63
2022/07/12 08:48:02;;;;;;;2.47;0.77;;;;;;;;;;5085731;28;20453;-64
2022/07/12 08:50:28;;;;;;;2.97;0.90;;;;;;;;;;5085810;28;20050;-61
2022/07/12 08:52:55;;;;;;;2.42;0.80;;;;;;;;;;5085330;28;20100;-63
2022/07/12 08:55:24;;;;;;;1.35;0.70;;;;;;;;;;5083933;28;20040;-62
2022/07/12 08:57:51;;;;;;;;;;;;;;;;;;5085887;28;20018;-63
2022/07/12 09:00:17;;;;;;;2.80;0.90;;;;;;;;;;5067466;28;20335;-61
2022/07/12 09:02:50;;;;;;;1.33;0.88;;;;;;;;;;5083046;28;20094;-61
2022/07/12 09:05:18;;;;;;;1.83;1.02;;;;;;;;;;5084416;28;20024;-64
2022/07/12 09:07:44;;;;;;;4.05;0.95;;;;;;;;;;5085729;28;20369;-64
2022/07/12 09:10:11;;;;;;;7.28;1.48;;;;;;;;;;5084188;28;20032;-64
2022/07/12 09:12:37;;;;;;;1.90;0.90;;;;;;;;;;5084371;28;20028;-65
2022/07/12 09:15:23;;;;;;;2.15;0.73;;;;;;;;;;5085932;28;20030;-65
2022/07/12 09:18:04;;;;;;;2.65;0.85;;;;;;;;;;5083926;28;20055;-64
2022/07/12 09:20:36;;;;;;;1.75;0.90;;;;;;;;;;5084315;28;20548;-64
2022/07/12 09:23:08;;;;;;;2.00;0.70;;;;;;;;;;5083679;28;20040;-65
2022/07/12 09:25:34;;;;;;;4.38;0.70;;;;;;;;;;5084348;28;20016;-64
2022/07/12 09:28:06;;;;;;;1.73;1.00;;;;;;;;;;5085326;28;20095;-65
2022/07/12 09:30:32;;;;;;;1.55;0.70;;;;;;;;;;5084273;28;20021;-64
2022/07/12 09:36:07;;;;;;;2.08;0.82;;;;;;;;;;5085627;28;20027;-66
2022/07/12 09:38:53;;;;;;;3.95;1.10;;;;;;;;;;5066313;28;20068;-65
2022/07/12 09:41:20;;;;;;;2.40;0.77;;;;;;;;;;5085284;28;20052;-61
2022/07/12 09:43:46;;;;;;;5.55;0.90;;;;;;;;;;5084939;28;20040;-65
2022/07/12 09:46:14;;;;;;;2.15;0.80;;;;;;;;;;5092708;28;20448;-65
2022/07/12 09:48:41;;;;;;;3.60;1.08;;;;;;;;;;5076030;28;20114;-65
2022/07/12 09:51:09;;;;;;;1.40;0.63;;;;;;;;;;5094623;28;20472;-65
2022/07/12 09:53:45;;;;;;;1.08;0.70;;;;;;;;;;5094621;28;20348;-65
2022/07/12 09:56:13;;;;;;;1.30;0.90;;;;;;;;;;5094500;28;20052;-66
2022/07/12 09:58:45;;;;;;;1.40;0.80;;;;;;;;;;5075992;28;20554;-66
2022/07/12 10:01:12;;;;;;;1.98;0.70;;;;;;;;;;5094479;28;20403;-66
2022/07/12 10:03:40;;;;;;;1.13;0.70;;;;;;;;;;5094356;28;20051;-66
2022/07/12 10:06:07;;;;;;;0.90;0.60;;;;;;;;;;5094253;28;20032;-66
2022/07/12 10:08:34;;;;;;;6.63;1.00;;;;;;;;;;5094261;28;20107;-66
2022/07/12 10:11:00;;;;;;;3.03;0.90;;;;;;;;;;5094111;28;20038;-66
2022/07/12 10:13:26;;;;;;;2.63;1.00;;;;;;;;;;5094061;28;20024;-65
2022/07/12 10:15:59;;;;;;;0.90;0.70;;;;;;;;;;5093867;28;20056;-66
2022/07/12 10:18:24;;;;;;;3.25;0.80;;;;;;;;;;5093950;28;20046;-66
2022/07/12 10:20:50;;;;;;;1.92;0.95;;;;;;;;;;5075989;28;20036;-65
2022/07/12 10:23:15;;;;;;;1.92;0.90;;;;;;;;;;5094074;28;20020;-66
2022/07/12 10:25:42;;;;;;;3.65;0.70;;;;;;;;;;5093795;28;20023;-66
2022/07/12 10:28:07;;;;;;;6.47;1.55;;;;;;;;;;5093902;28;20063;-65
2022/07/12 10:30:49;;;;;;;5.68;1.27;;;;;;;;;;5093540;28;20062;-66
2022/07/12 10:33:20;;;;;;;2.63;0.90;;;;;;;;;;5080082;28;20108;-66
2022/07/12 10:36:07;;;;;;;9.27;1.70;;;;;;;;;;5073548;28;20024;-66
2022/07/12 10:38:36;;;;;;;2.42;0.88;;;;;;;;;;5073390;28;20035;-66
2022/07/12 10:41:19;;;;;;;6.32;1.40;;;;;;;;;;5073312;28;20354;-67
2022/07/12 10:46:30;;;;;;;6.32;1.60;;;;;;;;;;5073193;28;20503;-66
2022/07/12 10:49:25;;;;;;;6.72;1.70;;;;;;;;;;5073170;28;20052;-66
2022/07/12 10:52:09;;;;;;;6.85;1.80;;;;;;;;;;5073135;28;20492;-65
2022/07/12 10:54:35;;;;;;;4.45;1.48;;;;;;;;;;5073243;28;20032;-66
2022/07/12 10:57:01;;;;;;;4.65;1.60;;;;;;;;;;5073144;28;20082;-65
2022/07/12 10:59:30;;;;;;;6.93;1.52;;;;;;;;;;5072925;28;20497;-65
2022/07/12 11:01:56;;;;;;;5.43;0.75;;;;;;;;;;5072928;28;20021;-63
2022/07/12 11:04:22;;;;;;;5.00;1.50;;;;;;;;;;5072864;28;20493;-64
2022/07/12 11:06:49;;;;;;;4.70;1.27;;;;;;;;;;5072676;28;20029;-66
2022/07/12 11:09:17;;;;;;;6.50;1.70;;;;;;;;;;5072789;28;20081;-64
2022/07/12 11:11:48;;;;;;;3.60;1.20;;;;;;;;;;5073555;28;20036;-66
2022/07/12 11:14:22;;;;;;;4.65;1.35;;;;;;;;;;5092706;28;20028;-66
2022/07/12 11:16:49;;;;;;;1.90;1.00;;;;;;;;;;5093166;28;20051;-66
2022/07/12 11:19:15;;;;;;;3.22;1.25;;;;;;;;;;5092968;28;20024;-66
2022/07/12 11:21:45;;;;;;;2.85;1.20;;;;;;;;;;5092811;28;20036;-65
2022/07/12 11:24:24;;;;;;;3.97;1.08;;;;;;;;;;5092846;28;20419;-64
2022/07/12 11:26:50;;;;;;;4.63;1.17;;;;;;;;;;5092459;28;20066;-64
2022/07/12 11:29:17;;;;;;;2.60;0.93;;;;;;;;;;5092296;28;20261;-66
2022/07/12 11:31:43;;;;;;;2.42;0.95;;;;;;;;;;5092432;28;20022;-64
2022/07/12 11:34:29;;;;;;;2.25;0.90;;;;;;;;;;5072305;28;20433;-64
2022/07/12 11:36:57;;;;;;;2.40;0.93;;;;;;;;;;5071924;28;20024;-63
2022/07/12 11:39:34;;;;;;;1.80;0.75;;;;;;;;;;5071297;28;20020;-66
2022/07/12 11:42:00;;;;;;;2.53;0.93;;;;;;;;;;5080365;28;20119;-65
2022/07/12 11:44:48;;;;;;;1.65;0.95;;;;;;;;;;5091380;28;20040;-63
2022/07/12 11:47:16;;;;;;;2.70;1.10;;;;;;;;;;5092165;28;20441;-65
2022/07/12 11:49:46;;;;;;;2.40;1.00;;;;;;;;;;5092509;28;20060;-65
2022/07/12 11:52:17;;;;;;;2.30;0.80;;;;;;;;;;5092690;28;20031;-65
2022/07/12 11:54:44;;;;;;;4.35;1.00;;;;;;;;;;5092757;28;20043;-66
2022/07/12 11:57:11;;;;;;;3.63;0.90;;;;;;;;;;5074414;28;20052;-66
2022/07/12 11:59:37;;;;;;;3.75;0.90;;;;;;;;;;5092390;28;20059;-66
2022/07/12 12:02:08;;;;;;;1.83;0.70;;;;;;;;;;5092271;28;20485;-66
2022/07/12 12:04:54;;;;;;;13.38;1.40;;;;;;;;;;5092586;28;20032;-64
2022/07/12 12:07:22;;;;;;;12.40;1.88;;;;;;;;;;5092040;28;20028;-64
2022/07/12 12:10:06;;;;;;;2.72;0.60;;;;;;;;;;5092292;28;20474;-64
2022/07/12 12:12:52;;;;;;;2.90;0.80;;;;;;;;;;5092060;28;20495;-65
2022/07/12 12:15:20;;;;;;;2.00;0.57;;;;;;;;;;5092492;28;20069;-65
2022/07/12 12:17:52;;;;;;;2.55;0.82;;;;;;;;;;5092290;28;20028;-64
2022/07/12 12:20:26;;;;;;;4.18;0.80;;;;;;;;;;5092267;28;20064;-66
2022/07/12 12:22:59;;;;;;;3.63;0.80;;;;;;;;;;5092065;28;20044;-63
2022/07/12 12:25:26;;;;;;;2.03;0.70;;;;;;;;;;5092210;28;20384;-65
2022/07/12 12:28:03;;;;;;;5.07;1.05;;;;;;;;;;5091609;28;20016;-63
2022/07/12 12:30:31;;;;;;;2.30;0.70;;;;;;;;;;5092229;28;20024;-66
2022/07/12 12:32:58;;;;;;;5.65;0.80;;;;;;;;;;5091981;28;20020;-66
2022/07/12 12:35:31;;;;;;;2.80;0.70;;;;;;;;;;5073678;28;20035;-67
2022/07/12 12:38:17;;;;;;;5.38;1.05;;;;;;;;;;5091974;28;20144;-66
2022/07/12 12:40:51;;;;;;;1.52;0.68;;;;;;;;;;5089311;28;20047;-66
2022/07/12 12:43:20;;;;;;;2.70;0.85;;;;;;;;;;5087403;28;20443;-66
2022/07/12 12:45:49;;;;;;;4.88;1.00;;;;;;;;;;5094121;28;20028;-66
2022/07/12 12:48:19;;;;;;;3.55;0.98;;;;;;;;;;5094023;28;20035;-66
2022/07/12 12:50:47;;;;;;;3.42;1.38;;;;;;;;;;5094419;28;20028;-66
2022/07/12 12:53:20;;;;;;;2.13;0.80;;;;;;;;;;5076745;28;20020;-66
2022/07/12 12:55:48;;;;;;;2.67;0.90;;;;;;;;;;5095031;28;20051;-66
2022/07/12 12:58:15;;;;;;;2.35;0.70;;;;;;;;;;5094955;28;20028;-66
2022/07/12 13:00:46;;;;;;;2.95;0.90;;;;;;;;;;5094963;28;20039;-65
2022/07/12 13:03:14;;;;;;;6.03;0.90;;;;;;;;;;5093192;28;20027;-66
2022/07/12 13:05:40;;;;;;;8.63;0.95;;;;;;;;;;5094883;28;20024;-66
2022/07/12 13:08:08;;;;;;;4.32;0.75;;;;;;;;;;5095040;28;20494;-65
2022/07/12 13:10:34;;;;;;;2.65;1.02;;;;;;;;;;5095110;28;20024;-65
2022/07/12 13:13:02;;;;;;;4.95;0.90;;;;;;;;;;5095248;28;20072;-65
2022/07/12 13:15:27;;;;;;;6.85;1.00;;;;;;;;;;5095367;28;20043;-67
2022/07/12 13:17:53;;;;;;;1.80;0.90;;;;;;;;;;5089599;28;20086;-66
2022/07/12 13:20:20;;;;;;;3.35;1.05;;;;;;;;;;5074863;28;20031;-66
2022/07/12 13:22:45;;;;;;;3.05;0.80;;;;;;;;;;5074891;28;20016;-67
2022/07/12 13:25:12;;;;;;;2.53;0.70;;;;;;;;;;5074331;28;20380;-66
2022/07/12 13:27:39;;;;;;;3.47;0.90;;;;;;;;;;5074745;28;20075;-64
2022/07/12 13:30:07;;;;;;;2.60;0.75;;;;;;;;;;5074662;28;20074;-66
2022/07/12 13:32:33;;;;;;;1.27;0.60;;;;;;;;;;5074341;28;20028;-66
2022/07/12 13:35:00;;;;;;;3.40;0.88;;;;;;;;;;5089173;28;20155;-66
2022/07/12 13:37:26;;;;;;;1.90;0.93;;;;;;;;;;5075931;28;20023;-67
2022/07/12 13:42:35;;;;;;;5.15;0.60;;;;;;;;;;5092521;28;20407;-66
2022/07/12 13:45:01;;;;;;;4.20;1.00;;;;;;;;;;5093842;28;20040;-67
2022/07/12 13:47:26;;;;;;;6.13;0.90;;;;;;;;;;5094164;28;20028;-66
2022/07/12 13:49:52;;;;;;;3.95;0.85;;;;;;;;;;5090477;28;20028;-65
2022/07/12 13:52:18;;;;;;;2.50;0.85;;;;;;;;;;5085021;28;20102;-66
2022/07/12 13:54:44;;;;;;;2.95;0.85;;;;;;;;;;5083323;28;20098;-67
2022/07/12 13:57:10;;;;;;;5.03;0.80;;;;;;;;;;5083005;28;20469;-66
2022/07/12 13:59:37;;;;;;;4.10;0.90;;;;;;;;;;5079530;28;20055;-67
2022/07/12 14:02:04;;;;;;;1.40;0.73;;;;;;;;;;5073800;28;20039;-67
2022/07/12 14:04:30;;;;;;;3.53;0.60;;;;;;;;;;5074093;28;20081;-66
2022/07/12 14:06:56;;;;;;;3.83;0.90;;;;;;;;;;5073800;28;20025;-65
2022/07/12 14:09:21;;;;;;;2.35;0.73;;;;;;;;;;5073752;28;20032;-67
2022/07/12 14:11:47;;;;;;;3.38;0.75;;;;;;;;;;5073972;28;20027;-66
2022/07/12 14:14:13;;;;;;;6.10;1.00;;;;;;;;;;5073717;28;20051;-66
2022/07/12 14:16:38;;;;;;;4.43;0.70;;;;;;;;;;5055810;28;20112;-66
2022/07/12 14:19:04;;;;;;;2.33;0.93;;;;;;;;;;5073787;28;20098;-65
2022/07/12 14:21:29;;;;;;;6.18;0.88;;;;;;;;;;5073466;28;20064;-66
2022/07/12 14:23:59;;;;;;;3.53;0.70;;;;;;;;;;5073360;28;20110;-63
2022/07/12 14:26:25;;;;;;;4.27;0.70;;;;;;;;;;5073663;28;20384;-66
2022/07/12 14:28:50;;;;;;;2.50;0.52;;;;;;;;;;5073562;28;20103;-65
2022/07/12 14:31:16;;;;;;;2.60;0.70;;;;;;;;;;5073675;28;20028;-66
2022/07/12 14:33:41;;;;;;;1.73;0.52;;;;;;;;;;5073510;28;20075;-65
2022/07/12 14:36:07;;;;;;;6.00;0.88;;;;;;;;;;5073310;28;20031;-66
2022/07/12 14:38:33;;;;;;;1.00;0.55;;;;;;;;;;5073071;28;20485;-66
2022/07/12 14:40:59;;;;;;;1.27;0.50;;;;;;;;;;5073338;28;20047;-66
2022/07/12 14:43:24;;;;;;;3.75;0.73;;;;;;;;;;5072818;28;20422;-66
2022/07/12 14:45:50;;;;;;;3.67;0.80;;;;;;;;;;5073076;28;20033;-66
2022/07/12 14:48:16;;;;;;;1.48;0.68;;;;;;;;;;5072979;28;20520;-66
2022/07/12 14:50:41;;;;;;;1.40;0.50;;;;;;;;;;5073240;28;20028;-67
2022/07/12 14:53:07;;;;;;;1.90;0.70;;;;;;;;;;5072998;28;20029;-66
2022/07/12 14:55:33;;;;;;;4.28;1.10;;;;;;;;;;5074070;28;20017;-63
2022/07/12 14:58:00;;;;;;;1.15;0.50;;;;;;;;;;5084154;28;20029;-65